MMPR METAR and TAF | Updated Today

MMPR METAR

Licenciado Gustavo Díaz Ordaz International Airport

Observation time: 6:01 hr. ago

MMPR 070350Z 00000KT 15SM SKC 23/20 A2998

Need help? Read our tutorial on how to read METARs or read the parsed version below.

Licenciado Gustavo Díaz Ordaz International Airport (MMPR) METAR

  • Weather conditions on Tue, 07 Dec 2021 03:50:00 +0000 (6:01 hr. ago):
  • Present conditions: Dry
  • Clouds: No significant changes expected
  • Visibility: 24140 meters
  • Wind: Calm
  • Temperature: 23 celsius
  • Dew point: 20 celsius
  • Pressure: 29.98 inHg
  • Remarks: None


Useful to know...

MMPR TAF

Licenciado Gustavo Díaz Ordaz International Airport

TAF MMPR 070443Z 0706/0812 00000KT P6SM SKC TX29/0718Z TN19/0712Z FM072000 24010KT P6SM SCT020 BKN250 FM080300 24005KT P6SM BKN250
Observation time: 5:08 hr. ago
Need help? Read our tutorial on how to read TAFs or read the parsed version below.

Parsed version of TAF for Licenciado Gustavo Díaz Ordaz International Airport (MMPR)

  • From 07 December at 06:00 UTC, to day 08 of the month at 12:00 UTC
  • Clouds: No significant changes expected
  • From day 7 of the month at 20:00 UTC
  • Clouds: Scattered at 610 meters; broken sky at 7620 meters
  • Wind: 240 degrees at 10
  • From day 8 of the month at 03:00 UTC
  • Clouds: Broken sky at 7620 meters
  • Wind: 240 degrees at 5

Airports near MMPR

No airports found within 100nm radius.